sensor_id;sensor_type;location;lat;lon;timestamp;P1;durP1;ratioP1;P2;durP2;ratioP2
71038;SDS011;58692;43.212;27.908;2023-07-29T00:02:00;7.07;;;3.00;;
71038;SDS011;58692;43.212;27.908;2023-07-29T00:04:25;7.72;;;2.97;;
71038;SDS011;58692;43.212;27.908;2023-07-29T00:06:51;7.73;;;2.87;;
71038;SDS011;58692;43.212;27.908;2023-07-29T00:09:16;7.87;;;2.90;;
71038;SDS011;58692;43.212;27.908;2023-07-29T00:11:42;11.45;;;3.42;;
71038;SDS011;58692;43.212;27.908;2023-07-29T00:14:07;7.50;;;2.83;;
71038;SDS011;58692;43.212;27.908;2023-07-29T00:16:33;7.93;;;3.23;;
71038;SDS011;58692;43.212;27.908;2023-07-29T00:18:58;7.47;;;3.37;;
71038;SDS011;58692;43.212;27.908;2023-07-29T00:21:24;9.47;;;3.80;;
71038;SDS011;58692;43.212;27.908;2023-07-29T00:23:49;7.50;;;3.67;;
71038;SDS011;58692;43.212;27.908;2023-07-29T00:26:15;9.55;;;3.30;;
71038;SDS011;58692;43.212;27.908;2023-07-29T00:28:40;11.40;;;4.30;;
71038;SDS011;58692;43.212;27.908;2023-07-29T00:31:06;8.20;;;3.53;;
71038;SDS011;58692;43.212;27.908;2023-07-29T00:33:31;8.30;;;3.80;;
71038;SDS011;58692;43.212;27.908;2023-07-29T00:35:57;7.43;;;3.87;;
71038;SDS011;58692;43.212;27.908;2023-07-29T00:38:26;10.60;;;3.75;;
71038;SDS011;58692;43.212;27.908;2023-07-29T00:40:52;10.00;;;4.07;;
71038;SDS011;58692;43.212;27.908;2023-07-29T00:43:17;10.30;;;4.43;;
71038;SDS011;58692;43.212;27.908;2023-07-29T00:45:43;7.13;;;3.93;;
71038;SDS011;58692;43.212;27.908;2023-07-29T00:48:09;9.70;;;4.30;;
71038;SDS011;58692;43.212;27.908;2023-07-29T00:50:35;10.83;;;4.73;;
71038;SDS011;58692;43.212;27.908;2023-07-29T00:53:01;11.48;;;4.80;;
71038;SDS011;58692;43.212;27.908;2023-07-29T00:55:26;9.50;;;4.00;;
71038;SDS011;58692;43.212;27.908;2023-07-29T00:57:53;11.15;;;3.80;;
71038;SDS011;58692;43.212;27.908;2023-07-29T01:00:19;7.40;;;3.75;;
71038;SDS011;58692;43.212;27.908;2023-07-29T01:02:46;10.07;;;4.30;;
71038;SDS011;58692;43.212;27.908;2023-07-29T01:05:12;11.40;;;4.03;;
71038;SDS011;58692;43.212;27.908;2023-07-29T01:07:44;10.95;;;4.30;;
71038;SDS011;58692;43.212;27.908;2023-07-29T01:15:43;11.82;;;4.30;;
71038;SDS011;58692;43.212;27.908;2023-07-29T01:18:18;10.75;;;4.30;;
71038;SDS011;58692;43.212;27.908;2023-07-29T01:20:48;12.10;;;4.70;;
71038;SDS011;58692;43.212;27.908;2023-07-29T01:23:16;11.60;;;3.95;;
71038;SDS011;58692;43.212;27.908;2023-07-29T01:25:48;13.77;;;4.63;;
71038;SDS011;58692;43.212;27.908;2023-07-29T01:28:13;11.95;;;4.18;;
71038;SDS011;58692;43.212;27.908;2023-07-29T01:30:39;9.40;;;4.30;;
71038;SDS011;58692;43.212;27.908;2023-07-29T01:33:14;12.45;;;4.35;;
71038;SDS011;58692;43.212;27.908;2023-07-29T01:38:24;10.07;;;4.50;;
71038;SDS011;58692;43.212;27.908;2023-07-29T01:40:56;11.57;;;4.57;;
71038;SDS011;58692;43.212;27.908;2023-07-29T01:43:24;12.90;;;4.57;;
71038;SDS011;58692;43.212;27.908;2023-07-29T01:45:50;12.70;;;4.47;;
71038;SDS011;58692;43.212;27.908;2023-07-29T01:48:16;12.43;;;4.30;;
71038;SDS011;58692;43.212;27.908;2023-07-29T01:50:42;12.68;;;4.60;;
71038;SDS011;58692;43.212;27.908;2023-07-29T01:53:08;10.70;;;4.20;;
71038;SDS011;58692;43.212;27.908;2023-07-29T01:55:33;9.90;;;4.43;;
71038;SDS011;58692;43.212;27.908;2023-07-29T01:57:59;9.07;;;4.10;;
71038;SDS011;58692;43.212;27.908;2023-07-29T02:00:24;9.47;;;4.10;;
71038;SDS011;58692;43.212;27.908;2023-07-29T02:02:50;9.93;;;4.33;;
71038;SDS011;58692;43.212;27.908;2023-07-29T02:05:15;10.97;;;4.43;;
71038;SDS011;58692;43.212;27.908;2023-07-29T02:07:41;17.90;;;4.50;;
71038;SDS011;58692;43.212;27.908;2023-07-29T02:10:06;9.53;;;4.90;;
71038;SDS011;58692;43.212;27.908;2023-07-29T02:12:33;12.80;;;4.85;;
71038;SDS011;58692;43.212;27.908;2023-07-29T02:14:58;15.23;;;4.50;;
71038;SDS011;58692;43.212;27.908;2023-07-29T02:17:24;9.75;;;4.30;;
71038;SDS011;58692;43.212;27.908;2023-07-29T02:19:51;12.33;;;4.47;;
71038;SDS011;58692;43.212;27.908;2023-07-29T02:22:16;10.93;;;3.83;;
71038;SDS011;58692;43.212;27.908;2023-07-29T02:24:43;11.20;;;4.43;;
71038;SDS011;58692;43.212;27.908;2023-07-29T02:27:08;11.70;;;4.20;;
71038;SDS011;58692;43.212;27.908;2023-07-29T02:29:34;12.37;;;4.40;;
71038;SDS011;58692;43.212;27.908;2023-07-29T02:31:59;11.77;;;4.20;;
71038;SDS011;58692;43.212;27.908;2023-07-29T02:34:25;12.93;;;4.10;;
71038;SDS011;58692;43.212;27.908;2023-07-29T02:36:51;9.57;;;4.30;;
71038;SDS011;58692;43.212;27.908;2023-07-29T02:39:16;12.03;;;4.13;;
71038;SDS011;58692;43.212;27.908;2023-07-29T02:41:42;11.45;;;4.18;;
71038;SDS011;58692;43.212;27.908;2023-07-29T02:44:07;10.83;;;4.00;;
71038;SDS011;58692;43.212;27.908;2023-07-29T02:46:33;12.43;;;4.10;;
71038;SDS011;58692;43.212;27.908;2023-07-29T02:48:59;11.02;;;4.53;;
71038;SDS011;58692;43.212;27.908;2023-07-29T02:51:24;10.37;;;4.13;;
71038;SDS011;58692;43.212;27.908;2023-07-29T02:53:50;8.13;;;3.92;;
71038;SDS011;58692;43.212;27.908;2023-07-29T02:56:15;11.10;;;3.97;;
71038;SDS011;58692;43.212;27.908;2023-07-29T02:58:41;9.27;;;3.90;;
71038;SDS011;58692;43.212;27.908;2023-07-29T03:01:07;8.07;;;3.67;;
71038;SDS011;58692;43.212;27.908;2023-07-29T03:03:32;13.83;;;4.17;;
71038;SDS011;58692;43.212;27.908;2023-07-29T03:05:59;9.48;;;3.70;;
71038;SDS011;58692;43.212;27.908;2023-07-29T03:08:26;12.32;;;4.28;;
71038;SDS011;58692;43.212;27.908;2023-07-29T03:10:52;11.87;;;4.30;;
71038;SDS011;58692;43.212;27.908;2023-07-29T03:13:17;11.10;;;4.45;;
71038;SDS011;58692;43.212;27.908;2023-07-29T03:15:43;10.47;;;4.03;;
71038;SDS011;58692;43.212;27.908;2023-07-29T03:18:08;14.07;;;5.20;;
71038;SDS011;58692;43.212;27.908;2023-07-29T03:20:34;11.37;;;4.57;;
71038;SDS011;58692;43.212;27.908;2023-07-29T03:22:59;10.40;;;4.50;;
71038;SDS011;58692;43.212;27.908;2023-07-29T03:25:25;12.27;;;4.77;;
71038;SDS011;58692;43.212;27.908;2023-07-29T03:27:50;11.40;;;4.33;;
71038;SDS011;58692;43.212;27.908;2023-07-29T03:30:19;10.73;;;4.00;;
71038;SDS011;58692;43.212;27.908;2023-07-29T03:32:46;11.15;;;4.00;;
71038;SDS011;58692;43.212;27.908;2023-07-29T03:35:11;10.63;;;4.50;;
71038;SDS011;58692;43.212;27.908;2023-07-29T03:37:37;11.97;;;4.57;;
71038;SDS011;58692;43.212;27.908;2023-07-29T03:40:03;13.73;;;4.47;;
71038;SDS011;58692;43.212;27.908;2023-07-29T03:42:29;11.93;;;4.88;;
71038;SDS011;58692;43.212;27.908;2023-07-29T03:44:56;10.93;;;4.50;;
71038;SDS011;58692;43.212;27.908;2023-07-29T03:47:21;10.17;;;4.27;;
71038;SDS011;58692;43.212;27.908;2023-07-29T03:49:47;10.83;;;4.30;;
71038;SDS011;58692;43.212;27.908;2023-07-29T03:52:12;8.68;;;3.78;;
71038;SDS011;58692;43.212;27.908;2023-07-29T03:54:39;9.80;;;4.30;;
71038;SDS011;58692;43.212;27.908;2023-07-29T03:57:04;10.23;;;4.45;;
71038;SDS011;58692;43.212;27.908;2023-07-29T03:59:30;12.43;;;4.20;;
71038;SDS011;58692;43.212;27.908;2023-07-29T04:01:56;16.13;;;4.70;;
71038;SDS011;58692;43.212;27.908;2023-07-29T04:04:21;10.70;;;4.60;;
71038;SDS011;58692;43.212;27.908;2023-07-29T04:06:47;14.25;;;4.88;;
71038;SDS011;58692;43.212;27.908;2023-07-29T04:09:12;13.13;;;4.47;;
71038;SDS011;58692;43.212;27.908;2023-07-29T04:11:38;10.07;;;4.30;;
71038;SDS011;58692;43.212;27.908;2023-07-29T04:14:03;11.93;;;4.68;;
71038;SDS011;58692;43.212;27.908;2023-07-29T04:16:29;12.33;;;4.57;;
71038;SDS011;58692;43.212;27.908;2023-07-29T04:18:54;16.90;;;4.67;;
71038;SDS011;58692;43.212;27.908;2023-07-29T04:21:20;9.33;;;4.60;;
71038;SDS011;58692;43.212;27.908;2023-07-29T04:23:45;11.40;;;5.00;;
71038;SDS011;58692;43.212;27.908;2023-07-29T04:26:11;13.27;;;4.70;;
71038;SDS011;58692;43.212;27.908;2023-07-29T04:28:36;12.45;;;5.40;;
71038;SDS011;58692;43.212;27.908;2023-07-29T04:31:02;9.23;;;5.10;;
71038;SDS011;58692;43.212;27.908;2023-07-29T04:33:29;11.38;;;5.07;;
71038;SDS011;58692;43.212;27.908;2023-07-29T04:35:55;18.23;;;5.27;;
71038;SDS011;58692;43.212;27.908;2023-07-29T04:38:21;15.40;;;6.45;;
71038;SDS011;58692;43.212;27.908;2023-07-29T04:40:48;16.00;;;7.83;;
71038;SDS011;58692;43.212;27.908;2023-07-29T04:43:14;14.80;;;8.48;;
71038;SDS011;58692;43.212;27.908;2023-07-29T04:45:43;18.08;;;9.70;;
71038;SDS011;58692;43.212;27.908;2023-07-29T04:48:09;21.50;;;10.98;;
71038;SDS011;58692;43.212;27.908;2023-07-29T04:50:34;18.97;;;11.70;;
71038;SDS011;58692;43.212;27.908;2023-07-29T04:53:00;24.47;;;12.90;;
71038;SDS011;58692;43.212;27.908;2023-07-29T04:55:26;23.25;;;13.80;;
71038;SDS011;58692;43.212;27.908;2023-07-29T04:57:51;33.83;;;16.17;;
71038;SDS011;58692;43.212;27.908;2023-07-29T05:00:17;28.23;;;17.30;;
71038;SDS011;58692;43.212;27.908;2023-07-29T05:02:43;28.23;;;19.60;;
71038;SDS011;58692;43.212;27.908;2023-07-29T05:05:08;29.50;;;18.63;;
71038;SDS011;58692;43.212;27.908;2023-07-29T05:07:34;29.63;;;19.67;;
71038;SDS011;58692;43.212;27.908;2023-07-29T05:09:59;40.13;;;27.30;;
71038;SDS011;58692;43.212;27.908;2023-07-29T05:12:25;39.37;;;29.43;;
71038;SDS011;58692;43.212;27.908;2023-07-29T05:14:50;33.10;;;23.37;;
71038;SDS011;58692;43.212;27.908;2023-07-29T05:17:16;30.42;;;21.23;;
71038;SDS011;58692;43.212;27.908;2023-07-29T05:19:42;28.10;;;17.80;;
71038;SDS011;58692;43.212;27.908;2023-07-29T05:22:07;29.23;;;15.53;;
71038;SDS011;58692;43.212;27.908;2023-07-29T05:24:33;23.53;;;14.17;;
71038;SDS011;58692;43.212;27.908;2023-07-29T05:26:58;22.87;;;13.13;;
71038;SDS011;58692;43.212;27.908;2023-07-29T05:29:24;25.58;;;13.38;;
71038;SDS011;58692;43.212;27.908;2023-07-29T05:31:49;24.80;;;13.13;;
71038;SDS011;58692;43.212;27.908;2023-07-29T05:34:15;23.63;;;13.00;;
71038;SDS011;58692;43.212;27.908;2023-07-29T05:36:40;23.80;;;11.45;;
71038;SDS011;58692;43.212;27.908;2023-07-29T05:39:06;17.03;;;11.30;;
71038;SDS011;58692;43.212;27.908;2023-07-29T05:41:32;18.70;;;11.07;;
71038;SDS011;58692;43.212;27.908;2023-07-29T05:43:58;19.03;;;11.20;;
71038;SDS011;58692;43.212;27.908;2023-07-29T05:46:23;19.05;;;10.48;;
71038;SDS011;58692;43.212;27.908;2023-07-29T05:48:49;18.23;;;10.10;;
71038;SDS011;58692;43.212;27.908;2023-07-29T05:51:14;16.17;;;10.20;;
71038;SDS011;58692;43.212;27.908;2023-07-29T05:53:40;16.13;;;9.73;;
71038;SDS011;58692;43.212;27.908;2023-07-29T05:56:05;18.57;;;10.40;;
71038;SDS011;58692;43.212;27.908;2023-07-29T05:58:31;17.60;;;10.00;;
71038;SDS011;58692;43.212;27.908;2023-07-29T06:00:57;21.10;;;10.70;;
71038;SDS011;58692;43.212;27.908;2023-07-29T06:03:23;17.15;;;9.25;;
71038;SDS011;58692;43.212;27.908;2023-07-29T06:05:48;16.57;;;9.33;;
71038;SDS011;58692;43.212;27.908;2023-07-29T06:08:14;15.60;;;9.43;;
71038;SDS011;58692;43.212;27.908;2023-07-29T06:10:40;15.47;;;8.10;;
71038;SDS011;58692;43.212;27.908;2023-07-29T06:13:05;14.47;;;8.87;;
71038;SDS011;58692;43.212;27.908;2023-07-29T06:15:31;15.17;;;9.17;;
71038;SDS011;58692;43.212;27.908;2023-07-29T06:17:56;17.77;;;10.43;;
71038;SDS011;58692;43.212;27.908;2023-07-29T06:20:22;17.02;;;10.00;;
71038;SDS011;58692;43.212;27.908;2023-07-29T06:22:48;19.10;;;10.43;;
71038;SDS011;58692;43.212;27.908;2023-07-29T06:25:13;16.37;;;10.17;;
71038;SDS011;58692;43.212;27.908;2023-07-29T06:27:39;17.23;;;9.83;;
71038;SDS011;58692;43.212;27.908;2023-07-29T06:30:04;15.40;;;8.83;;
71038;SDS011;58692;43.212;27.908;2023-07-29T06:32:31;14.00;;;7.97;;
71038;SDS011;58692;43.212;27.908;2023-07-29T06:34:57;12.25;;;7.30;;
71038;SDS011;58692;43.212;27.908;2023-07-29T06:37:22;12.73;;;6.10;;
71038;SDS011;58692;43.212;27.908;2023-07-29T06:39:48;12.50;;;5.63;;
71038;SDS011;58692;43.212;27.908;2023-07-29T06:42:16;11.90;;;5.53;;
71038;SDS011;58692;43.212;27.908;2023-07-29T06:44:42;13.23;;;5.30;;
71038;SDS011;58692;43.212;27.908;2023-07-29T06:47:08;12.27;;;5.50;;
71038;SDS011;58692;43.212;27.908;2023-07-29T06:49:33;9.27;;;5.20;;
71038;SDS011;58692;43.212;27.908;2023-07-29T06:51:59;11.85;;;5.97;;
71038;SDS011;58692;43.212;27.908;2023-07-29T06:54:25;9.13;;;4.80;;
71038;SDS011;58692;43.212;27.908;2023-07-29T06:56:51;10.00;;;5.25;;
71038;SDS011;58692;43.212;27.908;2023-07-29T06:59:17;12.95;;;5.00;;
71038;SDS011;58692;43.212;27.908;2023-07-29T07:01:42;9.07;;;4.73;;
71038;SDS011;58692;43.212;27.908;2023-07-29T07:04:08;10.53;;;5.00;;
71038;SDS011;58692;43.212;27.908;2023-07-29T07:06:33;12.30;;;5.90;;
71038;SDS011;58692;43.212;27.908;2023-07-29T07:08:59;12.40;;;5.83;;
71038;SDS011;58692;43.212;27.908;2023-07-29T07:11:24;12.53;;;5.37;;
71038;SDS011;58692;43.212;27.908;2023-07-29T07:13:50;8.47;;;5.43;;
71038;SDS011;58692;43.212;27.908;2023-07-29T07:16:15;11.43;;;4.73;;
71038;SDS011;58692;43.212;27.908;2023-07-29T07:18:41;10.70;;;5.47;;
71038;SDS011;58692;43.212;27.908;2023-07-29T07:21:06;11.13;;;5.00;;
71038;SDS011;58692;43.212;27.908;2023-07-29T07:23:32;10.57;;;5.10;;
71038;SDS011;58692;43.212;27.908;2023-07-29T07:25:57;10.73;;;5.40;;
71038;SDS011;58692;43.212;27.908;2023-07-29T07:28:23;9.50;;;4.90;;
71038;SDS011;58692;43.212;27.908;2023-07-29T07:30:48;11.07;;;4.57;;
71038;SDS011;58692;43.212;27.908;2023-07-29T07:33:14;8.85;;;4.30;;
71038;SDS011;58692;43.212;27.908;2023-07-29T07:35:40;7.60;;;4.60;;
71038;SDS011;58692;43.212;27.908;2023-07-29T07:38:07;10.27;;;5.18;;
71038;SDS011;58692;43.212;27.908;2023-07-29T07:40:34;9.63;;;6.22;;
71038;SDS011;58692;43.212;27.908;2023-07-29T07:43:01;10.57;;;6.03;;
71038;SDS011;58692;43.212;27.908;2023-07-29T07:45:27;15.38;;;6.47;;
71038;SDS011;58692;43.212;27.908;2023-07-29T07:47:52;10.45;;;6.30;;
71038;SDS011;58692;43.212;27.908;2023-07-29T07:50:19;10.23;;;6.72;;
71038;SDS011;58692;43.212;27.908;2023-07-29T07:52:45;11.90;;;6.97;;
71038;SDS011;58692;43.212;27.908;2023-07-29T07:55:11;10.57;;;6.50;;
71038;SDS011;58692;43.212;27.908;2023-07-29T07:57:36;9.93;;;6.13;;
71038;SDS011;58692;43.212;27.908;2023-07-29T08:00:02;11.38;;;6.70;;
71038;SDS011;58692;43.212;27.908;2023-07-29T08:02:29;11.07;;;6.10;;
71038;SDS011;58692;43.212;27.908;2023-07-29T08:04:55;7.10;;;5.00;;
71038;SDS011;58692;43.212;27.908;2023-07-29T08:07:20;8.43;;;5.05;;
71038;SDS011;58692;43.212;27.908;2023-07-29T08:09:46;8.93;;;3.80;;
71038;SDS011;58692;43.212;27.908;2023-07-29T08:12:12;7.53;;;4.00;;
71038;SDS011;58692;43.212;27.908;2023-07-29T08:14:37;7.50;;;3.80;;
71038;SDS011;58692;43.212;27.908;2023-07-29T08:17:03;8.03;;;4.80;;
71038;SDS011;58692;43.212;27.908;2023-07-29T08:19:28;7.47;;;3.20;;
71038;SDS011;58692;43.212;27.908;2023-07-29T08:21:54;7.80;;;3.20;;
71038;SDS011;58692;43.212;27.908;2023-07-29T08:24:19;7.43;;;3.20;;
71038;SDS011;58692;43.212;27.908;2023-07-29T08:26:45;8.48;;;3.83;;
71038;SDS011;58692;43.212;27.908;2023-07-29T08:29:11;6.10;;;3.10;;
71038;SDS011;58692;43.212;27.908;2023-07-29T08:31:37;5.53;;;2.63;;
71038;SDS011;58692;43.212;27.908;2023-07-29T08:34:03;6.45;;;3.72;;
71038;SDS011;58692;43.212;27.908;2023-07-29T08:36:28;6.17;;;3.03;;
71038;SDS011;58692;43.212;27.908;2023-07-29T08:38:54;5.47;;;2.67;;
71038;SDS011;58692;43.212;27.908;2023-07-29T08:41:21;7.47;;;3.35;;
71038;SDS011;58692;43.212;27.908;2023-07-29T08:43:53;12.48;;;3.92;;
71038;SDS011;58692;43.212;27.908;2023-07-29T08:46:27;10.13;;;3.80;;
71038;SDS011;58692;43.212;27.908;2023-07-29T08:48:53;6.38;;;3.55;;
71038;SDS011;58692;43.212;27.908;2023-07-29T08:51:20;6.82;;;3.83;;
71038;SDS011;58692;43.212;27.908;2023-07-29T08:53:48;9.35;;;4.35;;
71038;SDS011;58692;43.212;27.908;2023-07-29T08:56:14;7.55;;;3.75;;
71038;SDS011;58692;43.212;27.908;2023-07-29T08:58:40;9.03;;;4.23;;
71038;SDS011;58692;43.212;27.908;2023-07-29T09:01:07;8.23;;;3.70;;
71038;SDS011;58692;43.212;27.908;2023-07-29T09:03:32;7.82;;;3.92;;
71038;SDS011;58692;43.212;27.908;2023-07-29T09:05:58;7.73;;;3.70;;
71038;SDS011;58692;43.212;27.908;2023-07-29T09:08:26;7.00;;;4.00;;
71038;SDS011;58692;43.212;27.908;2023-07-29T09:10:53;6.82;;;3.90;;
71038;SDS011;58692;43.212;27.908;2023-07-29T09:13:19;7.00;;;3.55;;
71038;SDS011;58692;43.212;27.908;2023-07-29T09:15:45;8.27;;;3.80;;
71038;SDS011;58692;43.212;27.908;2023-07-29T09:18:15;7.50;;;3.75;;
71038;SDS011;58692;43.212;27.908;2023-07-29T09:20:42;8.13;;;3.50;;
71038;SDS011;58692;43.212;27.908;2023-07-29T09:23:08;7.03;;;3.50;;
71038;SDS011;58692;43.212;27.908;2023-07-29T09:25:36;7.25;;;3.60;;
71038;SDS011;58692;43.212;27.908;2023-07-29T09:28:09;8.98;;;3.80;;
71038;SDS011;58692;43.212;27.908;2023-07-29T09:30:36;8.25;;;3.40;;
71038;SDS011;58692;43.212;27.908;2023-07-29T09:33:03;8.13;;;3.30;;
71038;SDS011;58692;43.212;27.908;2023-07-29T09:35:29;6.75;;;3.30;;
71038;SDS011;58692;43.212;27.908;2023-07-29T09:37:58;6.78;;;3.25;;
71038;SDS011;58692;43.212;27.908;2023-07-29T09:40:24;7.10;;;3.40;;
71038;SDS011;58692;43.212;27.908;2023-07-29T09:42:50;6.43;;;3.17;;
71038;SDS011;58692;43.212;27.908;2023-07-29T09:45:21;5.60;;;3.10;;
71038;SDS011;58692;43.212;27.908;2023-07-29T09:47:49;8.70;;;2.93;;
71038;SDS011;58692;43.212;27.908;2023-07-29T09:50:15;6.90;;;3.00;;
71038;SDS011;58692;43.212;27.908;2023-07-29T09:52:41;6.50;;;2.60;;
71038;SDS011;58692;43.212;27.908;2023-07-29T09:55:07;5.63;;;2.80;;
71038;SDS011;58692;43.212;27.908;2023-07-29T09:57:35;6.43;;;2.80;;
71038;SDS011;58692;43.212;27.908;2023-07-29T10:00:04;5.20;;;2.80;;
71038;SDS011;58692;43.212;27.908;2023-07-29T10:02:35;6.55;;;2.88;;
71038;SDS011;58692;43.212;27.908;2023-07-29T10:05:06;5.43;;;2.50;;
71038;SDS011;58692;43.212;27.908;2023-07-29T10:07:33;7.85;;;2.85;;
71038;SDS011;58692;43.212;27.908;2023-07-29T10:10:02;4.97;;;2.40;;
71038;SDS011;58692;43.212;27.908;2023-07-29T10:12:30;5.30;;;2.53;;
71038;SDS011;58692;43.212;27.908;2023-07-29T10:14:58;4.70;;;2.35;;
71038;SDS011;58692;43.212;27.908;2023-07-29T10:17:26;6.72;;;2.30;;
71038;SDS011;58692;43.212;27.908;2023-07-29T10:19:52;6.15;;;2.60;;
71038;SDS011;58692;43.212;27.908;2023-07-29T10:22:20;4.60;;;2.38;;
71038;SDS011;58692;43.212;27.908;2023-07-29T10:24:49;4.37;;;2.17;;
71038;SDS011;58692;43.212;27.908;2023-07-29T10:27:18;6.60;;;2.30;;
71038;SDS011;58692;43.212;27.908;2023-07-29T10:29:45;7.15;;;2.50;;
71038;SDS011;58692;43.212;27.908;2023-07-29T10:32:11;6.60;;;2.72;;
71038;SDS011;58692;43.212;27.908;2023-07-29T10:34:37;5.90;;;2.80;;
71038;SDS011;58692;43.212;27.908;2023-07-29T10:37:04;5.47;;;2.63;;
71038;SDS011;58692;43.212;27.908;2023-07-29T10:39:37;5.88;;;2.70;;
71038;SDS011;58692;43.212;27.908;2023-07-29T10:42:05;4.40;;;2.60;;
71038;SDS011;58692;43.212;27.908;2023-07-29T10:44:49;6.45;;;2.80;;
71038;SDS011;58692;43.212;27.908;2023-07-29T10:47:16;6.07;;;3.10;;
71038;SDS011;58692;43.212;27.908;2023-07-29T10:49:43;8.02;;;2.80;;
71038;SDS011;58692;43.212;27.908;2023-07-29T10:52:27;6.82;;;2.90;;
71038;SDS011;58692;43.212;27.908;2023-07-29T10:54:56;5.50;;;3.00;;
71038;SDS011;58692;43.212;27.908;2023-07-29T10:57:30;6.60;;;3.03;;
71038;SDS011;58692;43.212;27.908;2023-07-29T11:00:00;6.17;;;3.00;;
71038;SDS011;58692;43.212;27.908;2023-07-29T11:02:29;6.88;;;3.08;;
71038;SDS011;58692;43.212;27.908;2023-07-29T11:04:55;5.55;;;3.10;;
71038;SDS011;58692;43.212;27.908;2023-07-29T11:07:21;8.10;;;3.20;;
71038;SDS011;58692;43.212;27.908;2023-07-29T11:09:59;6.80;;;2.70;;
71038;SDS011;58692;43.212;27.908;2023-07-29T11:17:34;7.35;;;3.10;;
71038;SDS011;58692;43.212;27.908;2023-07-29T11:20:00;7.00;;;3.00;;
71038;SDS011;58692;43.212;27.908;2023-07-29T11:22:28;5.97;;;2.90;;
71038;SDS011;58692;43.212;27.908;2023-07-29T11:24:54;6.38;;;3.20;;
71038;SDS011;58692;43.212;27.908;2023-07-29T11:27:20;5.27;;;2.93;;
71038;SDS011;58692;43.212;27.908;2023-07-29T11:29:46;5.75;;;3.03;;
71038;SDS011;58692;43.212;27.908;2023-07-29T11:32:12;6.72;;;3.00;;
71038;SDS011;58692;43.212;27.908;2023-07-29T11:34:38;6.40;;;3.10;;
71038;SDS011;58692;43.212;27.908;2023-07-29T11:37:05;6.43;;;3.15;;
71038;SDS011;58692;43.212;27.908;2023-07-29T11:39:31;5.55;;;2.85;;
71038;SDS011;58692;43.212;27.908;2023-07-29T11:41:58;8.10;;;3.40;;
71038;SDS011;58692;43.212;27.908;2023-07-29T11:44:24;7.03;;;2.83;;
71038;SDS011;58692;43.212;27.908;2023-07-29T11:46:50;7.75;;;2.78;;
71038;SDS011;58692;43.212;27.908;2023-07-29T11:49:15;5.07;;;3.00;;
71038;SDS011;58692;43.212;27.908;2023-07-29T11:51:41;6.65;;;2.88;;
71038;SDS011;58692;43.212;27.908;2023-07-29T11:54:08;6.80;;;2.90;;
71038;SDS011;58692;43.212;27.908;2023-07-29T11:56:34;5.20;;;2.80;;
71038;SDS011;58692;43.212;27.908;2023-07-29T11:59:01;5.00;;;2.60;;
71038;SDS011;58692;43.212;27.908;2023-07-29T12:01:27;6.55;;;2.90;;
71038;SDS011;58692;43.212;27.908;2023-07-29T12:03:53;5.85;;;2.60;;
71038;SDS011;58692;43.212;27.908;2023-07-29T12:06:21;5.47;;;2.80;;
71038;SDS011;58692;43.212;27.908;2023-07-29T12:08:47;3.80;;;2.57;;
71038;SDS011;58692;43.212;27.908;2023-07-29T12:11:13;5.00;;;2.50;;
71038;SDS011;58692;43.212;27.908;2023-07-29T12:13:41;5.15;;;2.67;;
71038;SDS011;58692;43.212;27.908;2023-07-29T12:16:07;6.47;;;2.70;;
71038;SDS011;58692;43.212;27.908;2023-07-29T12:18:32;5.43;;;2.60;;
71038;SDS011;58692;43.212;27.908;2023-07-29T12:20:59;5.35;;;2.80;;
71038;SDS011;58692;43.212;27.908;2023-07-29T12:23:25;5.90;;;2.35;;
71038;SDS011;58692;43.212;27.908;2023-07-29T12:25:56;5.77;;;2.83;;
71038;SDS011;58692;43.212;27.908;2023-07-29T12:28:22;6.70;;;2.40;;
71038;SDS011;58692;43.212;27.908;2023-07-29T12:30:52;4.82;;;2.47;;
71038;SDS011;58692;43.212;27.908;2023-07-29T12:36:04;8.10;;;2.90;;
71038;SDS011;58692;43.212;27.908;2023-07-29T12:38:30;5.00;;;2.78;;
71038;SDS011;58692;43.212;27.908;2023-07-29T12:40:55;6.63;;;2.45;;
71038;SDS011;58692;43.212;27.908;2023-07-29T12:43:21;5.10;;;2.67;;
71038;SDS011;58692;43.212;27.908;2023-07-29T12:45:50;6.93;;;2.70;;
71038;SDS011;58692;43.212;27.908;2023-07-29T12:48:16;6.75;;;2.80;;
71038;SDS011;58692;43.212;27.908;2023-07-29T12:50:41;6.70;;;2.77;;
71038;SDS011;58692;43.212;27.908;2023-07-29T12:53:08;6.47;;;2.53;;
71038;SDS011;58692;43.212;27.908;2023-07-29T12:55:35;6.57;;;2.90;;
71038;SDS011;58692;43.212;27.908;2023-07-29T12:58:01;6.15;;;2.42;;
71038;SDS011;58692;43.212;27.908;2023-07-29T13:00:27;4.87;;;2.40;;
71038;SDS011;58692;43.212;27.908;2023-07-29T13:02:53;5.63;;;2.30;;
71038;SDS011;58692;43.212;27.908;2023-07-29T13:05:19;5.75;;;2.60;;
71038;SDS011;58692;43.212;27.908;2023-07-29T13:07:45;7.17;;;2.60;;
71038;SDS011;58692;43.212;27.908;2023-07-29T13:10:10;4.83;;;2.40;;
71038;SDS011;58692;43.212;27.908;2023-07-29T13:12:36;5.40;;;2.50;;
71038;SDS011;58692;43.212;27.908;2023-07-29T13:15:02;5.87;;;2.57;;
71038;SDS011;58692;43.212;27.908;2023-07-29T13:17:28;4.90;;;2.45;;
71038;SDS011;58692;43.212;27.908;2023-07-29T13:19:54;6.57;;;2.50;;
71038;SDS011;58692;43.212;27.908;2023-07-29T13:22:20;5.15;;;2.30;;
71038;SDS011;58692;43.212;27.908;2023-07-29T13:24:45;4.40;;;2.33;;
71038;SDS011;58692;43.212;27.908;2023-07-29T13:27:11;5.17;;;2.23;;
71038;SDS011;58692;43.212;27.908;2023-07-29T13:29:36;5.70;;;2.40;;
71038;SDS011;58692;43.212;27.908;2023-07-29T13:32:02;4.10;;;2.30;;
71038;SDS011;58692;43.212;27.908;2023-07-29T13:34:28;4.35;;;2.20;;
71038;SDS011;58692;43.212;27.908;2023-07-29T13:36:53;3.97;;;2.30;;
71038;SDS011;58692;43.212;27.908;2023-07-29T13:39:19;5.30;;;2.20;;
71038;SDS011;58692;43.212;27.908;2023-07-29T13:41:44;5.57;;;2.13;;
71038;SDS011;58692;43.212;27.908;2023-07-29T13:44:10;2.93;;;1.70;;
71038;SDS011;58692;43.212;27.908;2023-07-29T13:46:35;5.63;;;2.50;;
71038;SDS011;58692;43.212;27.908;2023-07-29T13:49:01;6.50;;;2.30;;
71038;SDS011;58692;43.212;27.908;2023-07-29T13:51:27;4.70;;;1.98;;
71038;SDS011;58692;43.212;27.908;2023-07-29T13:53:52;6.53;;;2.27;;
71038;SDS011;58692;43.212;27.908;2023-07-29T13:56:18;4.57;;;2.30;;
71038;SDS011;58692;43.212;27.908;2023-07-29T13:58:43;6.40;;;2.37;;
71038;SDS011;58692;43.212;27.908;2023-07-29T14:01:09;5.38;;;2.08;;
71038;SDS011;58692;43.212;27.908;2023-07-29T14:03:34;3.73;;;2.10;;
71038;SDS011;58692;43.212;27.908;2023-07-29T14:06:00;5.10;;;2.30;;
71038;SDS011;58692;43.212;27.908;2023-07-29T14:08:26;4.18;;;2.00;;
71038;SDS011;58692;43.212;27.908;2023-07-29T14:10:51;5.27;;;2.20;;
71038;SDS011;58692;43.212;27.908;2023-07-29T14:13:16;5.00;;;2.20;;
71038;SDS011;58692;43.212;27.908;2023-07-29T14:15:42;5.85;;;2.35;;
71038;SDS011;58692;43.212;27.908;2023-07-29T14:18:08;4.47;;;2.10;;
71038;SDS011;58692;43.212;27.908;2023-07-29T14:20:33;4.88;;;2.00;;
71038;SDS011;58692;43.212;27.908;2023-07-29T14:22:59;6.00;;;2.07;;
71038;SDS011;58692;43.212;27.908;2023-07-29T14:25:25;5.70;;;2.25;;
71038;SDS011;58692;43.212;27.908;2023-07-29T14:27:50;6.83;;;2.47;;
71038;SDS011;58692;43.212;27.908;2023-07-29T14:30:16;8.27;;;2.30;;
71038;SDS011;58692;43.212;27.908;2023-07-29T14:32:41;9.20;;;2.30;;
71038;SDS011;58692;43.212;27.908;2023-07-29T14:35:07;7.97;;;2.27;;
71038;SDS011;58692;43.212;27.908;2023-07-29T14:37:33;6.15;;;2.60;;
71038;SDS011;58692;43.212;27.908;2023-07-29T14:40:00;5.22;;;2.20;;